createdAt,value
2023-05-21T00:00:34.850Z,16.33
2023-05-21T00:03:13.797Z,16.28
2023-05-21T00:05:47.303Z,16.42
2023-05-21T00:08:20.222Z,16.55
2023-05-21T00:10:54.417Z,16.42
2023-05-21T00:13:27.261Z,16.50
2023-05-21T00:16:00.418Z,16.32
2023-05-21T00:18:34.304Z,16.19
2023-05-21T00:21:07.700Z,16.26
2023-05-21T00:23:42.742Z,16.31
2023-05-21T00:26:17.017Z,16.29
2023-05-21T00:28:51.010Z,16.42
2023-05-21T00:31:23.991Z,16.17
2023-05-21T00:33:57.188Z,16.39
2023-05-21T00:36:30.944Z,16.29
2023-05-21T00:39:04.594Z,16.38
2023-05-21T00:41:40.096Z,16.50
2023-05-21T00:44:14.167Z,16.23
2023-05-21T00:46:48.857Z,15.87
2023-05-21T00:49:24.527Z,16.12
2023-05-21T00:51:57.814Z,16.18
2023-05-21T00:54:31.560Z,16.08
2023-05-21T00:57:06.907Z,15.97
2023-05-21T00:59:40.818Z,15.80
2023-05-21T01:02:14.354Z,15.91
2023-05-21T01:04:47.614Z,15.84
2023-05-21T01:07:20.436Z,15.80
2023-05-21T01:09:54.279Z,15.98
2023-05-21T01:12:28.719Z,16.02
2023-05-21T01:15:03.824Z,16.15
2023-05-21T01:17:36.869Z,16.04
2023-05-21T01:20:11.410Z,15.96
2023-05-21T01:22:50.229Z,15.93
2023-05-21T01:25:24.205Z,15.96
2023-05-21T01:27:57.910Z,15.89
2023-05-21T01:30:30.837Z,15.88
2023-05-21T01:33:09.160Z,15.73
2023-05-21T01:35:48.546Z,15.77
2023-05-21T01:38:27.250Z,15.88
2023-05-21T01:41:04.656Z,15.97
2023-05-21T01:43:40.316Z,15.65
2023-05-21T01:46:18.230Z,15.89
2023-05-21T01:48:53.827Z,15.93
2023-05-21T01:51:28.176Z,15.88
2023-05-21T01:54:02.619Z,15.66
2023-05-21T01:56:37.120Z,15.79
2023-05-21T01:59:10.180Z,15.67
2023-05-21T02:01:43.136Z,15.55
2023-05-21T02:04:15.990Z,15.42
2023-05-21T02:06:48.831Z,15.26
2023-05-21T02:09:23.007Z,15.25
2023-05-21T02:11:57.033Z,15.24
2023-05-21T02:14:30.776Z,15.10
2023-05-21T02:17:03.630Z,15.07
2023-05-21T02:19:36.508Z,15.10
2023-05-21T02:22:09.437Z,15.10
2023-05-21T02:24:43.723Z,15.09
2023-05-21T02:27:17.755Z,15.11
2023-05-21T02:29:50.536Z,15.14
2023-05-21T02:32:23.738Z,15.10
2023-05-21T02:34:56.874Z,14.96
2023-05-21T02:37:29.735Z,15.05
2023-05-21T02:40:06.046Z,15.01
2023-05-21T02:42:41.516Z,14.97
2023-05-21T02:45:17.588Z,15.06
2023-05-21T02:47:50.556Z,15.24
2023-05-21T02:50:25.549Z,15.15
2023-05-21T02:53:02.626Z,15.03
2023-05-21T02:55:37.722Z,15.13
2023-05-21T02:58:13.517Z,15.14
2023-05-21T03:00:46.921Z,15.05
2023-05-21T03:03:20.325Z,15.02
2023-05-21T03:05:53.571Z,15.18
2023-05-21T03:08:26.492Z,15.23
2023-05-21T03:11:00.741Z,15.37
2023-05-21T03:13:33.725Z,15.26
2023-05-21T03:16:07.042Z,15.09
2023-05-21T03:18:39.849Z,15.36
2023-05-21T03:21:18.300Z,15.25
2023-05-21T03:23:51.418Z,15.47
2023-05-21T03:26:27.325Z,15.49
2023-05-21T03:29:01.536Z,15.48
2023-05-21T03:31:34.573Z,15.32
2023-05-21T03:34:13.689Z,15.61
2023-05-21T03:36:47.273Z,15.52
2023-05-21T03:39:21.536Z,15.42
2023-05-21T03:41:56.248Z,15.50
2023-05-21T03:44:38.236Z,15.54
2023-05-21T03:47:45.840Z,15.66
2023-05-21T03:50:18.958Z,15.71
2023-05-21T03:52:51.809Z,15.61
2023-05-21T03:55:24.726Z,15.64
2023-05-21T03:57:58.935Z,15.85
2023-05-21T04:00:32.630Z,15.81
2023-05-21T04:03:07.199Z,15.67
2023-05-21T04:05:40.404Z,15.78
2023-05-21T04:08:13.556Z,15.72
2023-05-21T04:10:46.455Z,15.94
2023-05-21T04:13:20.734Z,16.09
2023-05-21T04:15:54.489Z,16.08
2023-05-21T04:18:27.428Z,16.10
2023-05-21T04:21:00.916Z,16.14
2023-05-21T04:23:36.662Z,16.32
2023-05-21T04:26:13.717Z,16.22
2023-05-21T04:28:50.482Z,16.45
2023-05-21T04:31:23.718Z,16.35
2023-05-21T04:33:57.040Z,16.65
2023-05-21T04:36:30.187Z,16.42
2023-05-21T04:39:06.319Z,16.48
2023-05-21T04:41:39.565Z,16.70
2023-05-21T04:44:15.426Z,16.81
2023-05-21T04:46:50.722Z,16.85
2023-05-21T04:49:24.093Z,17.00
2023-05-21T04:51:57.636Z,16.96
2023-05-21T04:54:30.563Z,16.96
2023-05-21T04:57:03.459Z,16.95
2023-05-21T04:59:37.814Z,16.75
2023-05-21T05:02:10.670Z,17.04
2023-05-21T05:04:43.987Z,17.10
2023-05-21T05:07:17.306Z,17.25
2023-05-21T05:09:50.160Z,17.37
2023-05-21T05:12:23.090Z,17.32
2023-05-21T05:14:57.365Z,17.16
2023-05-21T05:17:30.260Z,17.48
2023-05-21T05:20:05.207Z,17.41
2023-05-21T05:22:38.429Z,17.38
2023-05-21T05:25:11.220Z,17.62
2023-05-21T05:27:44.155Z,17.66
2023-05-21T05:30:18.460Z,17.91
2023-05-21T05:32:51.497Z,18.04
2023-05-21T05:35:24.627Z,18.05
2023-05-21T05:37:57.660Z,17.80
2023-05-21T05:40:30.622Z,17.87
2023-05-21T05:43:03.452Z,18.11
2023-05-21T05:45:38.221Z,18.26
2023-05-21T05:48:16.872Z,18.26
2023-05-21T05:50:54.554Z,18.51
2023-05-21T05:53:28.649Z,18.38
2023-05-21T05:56:03.040Z,18.32
2023-05-21T05:58:37.320Z,18.72
2023-05-21T06:01:17.853Z,18.69
2023-05-21T06:03:51.333Z,18.89
2023-05-21T06:06:26.918Z,18.82
2023-05-21T06:08:59.715Z,19.24
2023-05-21T06:11:32.491Z,19.29
2023-05-21T06:14:05.434Z,19.30
2023-05-21T06:16:40.297Z,19.40
2023-05-21T06:19:13.491Z,19.58
2023-05-21T06:21:46.450Z,20.00
2023-05-21T06:24:19.552Z,20.03
2023-05-21T06:26:52.503Z,19.99
2023-05-21T06:29:25.738Z,19.80
2023-05-21T06:32:02.725Z,20.31
2023-05-21T06:34:35.709Z,20.34
2023-05-21T06:37:08.707Z,20.56
2023-05-21T06:39:41.804Z,20.48
2023-05-21T06:42:14.992Z,20.86
2023-05-21T06:44:59.605Z,21.19
2023-05-21T06:47:37.518Z,21.01
2023-05-21T06:50:10.824Z,21.29
2023-05-21T06:52:43.957Z,21.29
2023-05-21T06:55:17.272Z,21.75
2023-05-21T06:58:08.754Z,21.71
2023-05-21T07:00:41.969Z,21.85
2023-05-21T07:03:17.458Z,21.86
2023-05-21T07:05:50.451Z,21.63
2023-05-21T07:08:23.729Z,21.39
2023-05-21T07:10:59.470Z,21.49
2023-05-21T07:13:32.533Z,21.59
2023-05-21T07:16:06.330Z,21.76
2023-05-21T07:18:40.465Z,21.96
2023-05-21T07:21:13.389Z,21.63
2023-05-21T07:23:46.252Z,22.22
2023-05-21T07:26:19.428Z,21.93
2023-05-21T07:28:52.307Z,22.15
2023-05-21T07:31:26.059Z,22.01
2023-05-21T07:34:00.861Z,21.80
2023-05-21T07:36:37.297Z,21.68
2023-05-21T07:39:10.623Z,21.62
2023-05-21T07:41:44.322Z,21.71
2023-05-21T07:44:17.408Z,21.60
2023-05-21T07:46:52.373Z,21.89
2023-05-21T07:49:27.390Z,21.64
2023-05-21T07:52:00.418Z,21.37
2023-05-21T07:54:33.316Z,21.99
2023-05-21T07:57:06.908Z,22.06
2023-05-21T07:59:56.515Z,22.11
2023-05-21T08:02:30.065Z,22.41
2023-05-21T08:05:04.692Z,22.30
2023-05-21T08:07:37.938Z,22.54
2023-05-21T08:10:11.427Z,22.65
2023-05-21T08:12:44.443Z,23.38
2023-05-21T08:15:18.408Z,23.24
2023-05-21T08:17:53.269Z,23.28
2023-05-21T08:20:27.888Z,23.37
2023-05-21T08:23:01.385Z,24.14
2023-05-21T08:25:39.607Z,24.74
2023-05-21T08:28:12.659Z,24.80
2023-05-21T08:30:46.713Z,25.08
2023-05-21T08:33:21.421Z,25.05
2023-05-21T08:35:56.126Z,25.41
2023-05-21T08:38:33.934Z,25.24
2023-05-21T08:41:15.533Z,25.13
2023-05-21T08:43:50.854Z,24.16
2023-05-21T08:46:25.720Z,24.54
2023-05-21T08:49:00.132Z,24.74
2023-05-21T08:51:34.576Z,24.82
2023-05-21T08:54:10.245Z,24.67
2023-05-21T08:56:49.317Z,24.73
2023-05-21T08:59:24.067Z,24.73
2023-05-21T09:01:58.286Z,24.68
2023-05-21T09:04:38.898Z,25.60
2023-05-21T09:07:13.713Z,25.27
2023-05-21T09:10:13.419Z,24.85
2023-05-21T09:12:49.038Z,25.94
2023-05-21T09:15:22.812Z,25.07
2023-05-21T09:17:56.024Z,25.61
2023-05-21T09:20:58.113Z,26.35
2023-05-21T09:23:34.091Z,26.72
2023-05-21T09:26:13.816Z,26.42
2023-05-21T09:28:46.787Z,25.85
2023-05-21T09:31:20.084Z,26.83
2023-05-21T09:33:55.557Z,26.55
2023-05-21T09:36:30.864Z,26.62
2023-05-21T09:39:08.515Z,26.45
2023-05-21T09:41:44.216Z,25.74
2023-05-21T09:44:20.237Z,25.70
2023-05-21T09:46:58.937Z,26.56
2023-05-21T09:49:31.979Z,25.14
2023-05-21T09:52:06.725Z,26.02
2023-05-21T09:54:42.188Z,26.14
2023-05-21T09:57:17.375Z,26.74
2023-05-21T09:59:52.175Z,26.94
2023-05-21T10:02:26.587Z,26.48
2023-05-21T10:05:00.902Z,25.97
2023-05-21T10:07:35.765Z,26.11
2023-05-21T10:10:14.686Z,26.34
2023-05-21T10:12:48.876Z,27.40
2023-05-21T10:15:25.186Z,27.26
2023-05-21T10:18:00.388Z,27.45
2023-05-21T10:20:34.642Z,28.05
2023-05-21T10:23:09.005Z,28.76
2023-05-21T10:25:43.603Z,28.81
2023-05-21T10:28:18.611Z,29.01
2023-05-21T10:30:51.642Z,27.23
2023-05-21T10:33:25.202Z,28.73
2023-05-21T10:35:59.987Z,28.15
2023-05-21T10:38:34.736Z,29.13
2023-05-21T10:41:11.109Z,28.18
2023-05-21T10:43:58.401Z,28.64
2023-05-21T10:47:03.918Z,27.58
2023-05-21T10:49:52.569Z,27.43
2023-05-21T10:52:47.874Z,28.24
2023-05-21T10:55:43.905Z,28.55
2023-05-21T10:58:47.578Z,28.99
2023-05-21T11:01:26.739Z,29.42
2023-05-21T11:04:00.094Z,28.39
2023-05-21T11:06:33.364Z,28.05
2023-05-21T11:09:13.781Z,27.54
2023-05-21T11:11:51.270Z,27.07
2023-05-21T11:14:31.931Z,27.17
2023-05-21T11:17:11.258Z,28.36
2023-05-21T11:19:47.165Z,28.58
2023-05-21T11:22:24.362Z,29.19
2023-05-21T11:25:01.996Z,29.16
2023-05-21T11:27:37.353Z,28.77
2023-05-21T11:30:17.142Z,29.21
2023-05-21T11:33:29.838Z,29.29
2023-05-21T11:36:03.514Z,29.22
2023-05-21T11:38:39.429Z,29.58
2023-05-21T11:41:12.839Z,29.63
2023-05-21T11:43:46.139Z,29.04
2023-05-21T11:46:21.022Z,30.09
2023-05-21T11:49:25.589Z,30.40
2023-05-21T11:51:59.781Z,30.05
2023-05-21T11:54:37.570Z,29.98
2023-05-21T11:57:13.755Z,28.16
2023-05-21T11:59:47.483Z,28.68
2023-05-21T12:02:23.496Z,29.76
2023-05-21T12:05:00.141Z,29.57
2023-05-21T12:07:33.710Z,28.53
2023-05-21T12:13:01.991Z,30.01
2023-05-21T12:15:39.277Z,29.56
2023-05-21T12:18:17.933Z,28.23
2023-05-21T12:20:52.442Z,28.45
2023-05-21T12:23:28.049Z,28.13
2023-05-21T12:26:06.908Z,28.54
2023-05-21T12:28:40.647Z,27.86
2023-05-21T12:31:16.374Z,28.03
2023-05-21T12:33:51.532Z,28.49
2023-05-21T12:36:28.372Z,28.90
2023-05-21T12:39:01.539Z,28.53
2023-05-21T12:41:34.554Z,28.70
2023-05-21T12:44:08.795Z,29.76
2023-05-21T12:46:42.834Z,29.37
2023-05-21T12:49:38.774Z,28.94
2023-05-21T12:52:13.510Z,29.46
2023-05-21T12:54:50.501Z,30.24
2023-05-21T12:57:28.490Z,30.22
2023-05-21T13:00:06.736Z,29.87
2023-05-21T13:02:41.671Z,29.97
2023-05-21T13:05:19.604Z,28.17
2023-05-21T13:07:52.827Z,29.40
2023-05-21T13:10:27.083Z,29.06
2023-05-21T13:13:00.596Z,28.50
2023-05-21T13:15:33.812Z,29.49
2023-05-21T13:18:06.698Z,29.93
2023-05-21T13:20:41.173Z,30.32
2023-05-21T13:23:14.341Z,29.63
2023-05-21T13:25:47.245Z,29.79
2023-05-21T13:28:20.248Z,28.83
2023-05-21T13:30:54.979Z,29.59
2023-05-21T13:33:33.852Z,30.21
2023-05-21T13:36:08.951Z,30.86
2023-05-21T13:38:42.027Z,30.06
2023-05-21T13:41:17.469Z,30.65
2023-05-21T13:43:52.798Z,30.42
2023-05-21T13:46:26.430Z,30.92
2023-05-21T13:49:00.740Z,30.94
2023-05-21T13:51:38.514Z,31.51
2023-05-21T13:54:14.106Z,30.00
2023-05-21T13:56:47.079Z,30.48
2023-05-21T13:59:20.254Z,30.37
2023-05-21T14:01:55.457Z,29.34
2023-05-21T14:04:30.049Z,29.56
2023-05-21T14:07:04.635Z,28.92
2023-05-21T14:09:39.873Z,28.37
2023-05-21T14:12:12.960Z,28.65
2023-05-21T14:14:46.091Z,28.71
2023-05-21T14:17:19.350Z,28.49
2023-05-21T14:19:52.413Z,29.20
2023-05-21T14:22:26.843Z,28.94
2023-05-21T14:25:00.361Z,27.71
2023-05-21T14:27:34.343Z,28.32
2023-05-21T14:30:08.454Z,28.69
2023-05-21T14:32:41.447Z,27.84
2023-05-21T14:35:14.332Z,28.14
2023-05-21T14:37:50.186Z,28.55
2023-05-21T14:40:23.708Z,28.08
2023-05-21T14:42:56.776Z,28.39
2023-05-21T14:45:29.993Z,29.29
2023-05-21T14:48:08.624Z,29.06
2023-05-21T14:50:42.583Z,28.28
2023-05-21T14:53:17.462Z,28.87
2023-05-21T14:55:50.746Z,28.80
2023-05-21T14:58:24.243Z,28.09
2023-05-21T15:00:57.660Z,28.37
2023-05-21T15:03:30.997Z,29.39
2023-05-21T15:06:04.364Z,29.06
2023-05-21T15:08:39.054Z,28.73
2023-05-21T15:11:12.258Z,28.96
2023-05-21T15:13:45.447Z,29.19
2023-05-21T15:16:19.796Z,29.10
2023-05-21T15:18:53.067Z,28.76
2023-05-21T15:21:27.978Z,28.53
2023-05-21T15:24:02.812Z,29.12
2023-05-21T15:26:35.947Z,29.30
2023-05-21T15:29:08.998Z,29.05
2023-05-21T15:31:42.296Z,27.97
2023-05-21T15:34:18.051Z,28.87
2023-05-21T15:36:51.289Z,28.04
2023-05-21T15:39:31.839Z,28.18
2023-05-21T15:42:05.052Z,27.91
2023-05-21T15:44:38.330Z,27.84
2023-05-21T15:47:11.405Z,27.67
2023-05-21T15:49:44.320Z,27.71
2023-05-21T15:52:17.717Z,28.17
2023-05-21T15:54:52.270Z,28.32
2023-05-21T15:57:25.421Z,27.39
2023-05-21T15:59:59.056Z,28.41
2023-05-21T16:02:32.383Z,27.96
2023-05-21T16:05:06.681Z,27.79
2023-05-21T16:07:40.223Z,27.84
2023-05-21T16:10:15.374Z,27.90
2023-05-21T16:12:48.889Z,28.02
2023-05-21T16:15:22.519Z,27.89
2023-05-21T16:17:56.156Z,27.99
2023-05-21T16:23:53.274Z,27.78
2023-05-21T16:26:35.826Z,27.80
2023-05-21T16:29:19.259Z,27.84
2023-05-21T16:31:55.583Z,27.76
2023-05-21T16:34:29.203Z,27.87
2023-05-21T16:37:02.674Z,27.72
2023-05-21T16:39:36.412Z,27.84
2023-05-21T16:42:13.541Z,28.06
2023-05-21T16:44:47.779Z,27.91
2023-05-21T16:47:26.085Z,27.97
2023-05-21T16:49:59.811Z,27.74
2023-05-21T16:52:33.470Z,27.85
2023-05-21T16:55:29.357Z,28.23
2023-05-21T16:58:06.427Z,28.25
2023-05-21T17:00:39.596Z,28.11
2023-05-21T17:03:13.046Z,27.83
2023-05-21T17:05:49.637Z,27.87
2023-05-21T17:08:23.206Z,27.39
2023-05-21T17:11:01.450Z,27.64
2023-05-21T17:13:52.497Z,27.42
2023-05-21T17:16:26.207Z,27.62
2023-05-21T17:19:02.483Z,27.92
2023-05-21T17:21:35.987Z,27.89
2023-05-21T17:24:09.082Z,27.48
2023-05-21T17:26:42.265Z,27.51
2023-05-21T17:29:17.115Z,27.63
2023-05-21T17:31:50.925Z,27.15
2023-05-21T17:34:29.483Z,27.42
2023-05-21T17:37:02.866Z,27.13
2023-05-21T17:39:36.315Z,27.47
2023-05-21T17:42:09.879Z,27.54
2023-05-21T17:44:44.333Z,27.41
2023-05-21T17:47:17.257Z,27.48
2023-05-21T17:49:50.229Z,27.54
2023-05-21T17:52:23.313Z,27.48
2023-05-21T17:54:56.419Z,27.15
2023-05-21T17:57:29.619Z,27.30
2023-05-21T18:00:05.185Z,26.88
2023-05-21T18:02:44.918Z,26.90
2023-05-21T18:05:18.096Z,26.52
2023-05-21T18:07:51.469Z,26.39
2023-05-21T18:10:24.737Z,26.12
2023-05-21T18:12:58.018Z,25.89
2023-05-21T18:15:33.192Z,25.99
2023-05-21T18:18:06.522Z,25.68
2023-05-21T18:20:39.765Z,25.62
2023-05-21T18:23:12.884Z,25.20
2023-05-21T18:25:45.901Z,25.31
2023-05-21T18:28:18.889Z,25.24
2023-05-21T18:30:55.197Z,24.95
2023-05-21T18:33:28.598Z,24.88
2023-05-21T18:36:01.891Z,24.76
2023-05-21T18:38:34.946Z,24.19
2023-05-21T18:41:08.061Z,24.50
2023-05-21T18:43:42.262Z,24.39
2023-05-21T18:46:16.680Z,24.18
2023-05-21T18:48:49.941Z,24.30
2023-05-21T18:51:22.939Z,24.02
2023-05-21T18:53:55.891Z,23.87
2023-05-21T18:56:28.767Z,23.49
2023-05-21T18:59:01.669Z,23.46
2023-05-21T19:01:36.044Z,23.49
2023-05-21T19:04:08.960Z,23.25
2023-05-21T19:06:41.823Z,23.13
2023-05-21T19:09:15.137Z,22.93
2023-05-21T19:11:48.240Z,22.86
2023-05-21T19:14:21.409Z,22.62
2023-05-21T19:16:55.847Z,22.49
2023-05-21T19:19:28.784Z,22.31
2023-05-21T19:22:01.872Z,22.00
2023-05-21T19:24:34.786Z,21.63
2023-05-21T19:27:07.568Z,21.76
2023-05-21T19:29:40.381Z,21.58
2023-05-21T19:32:15.969Z,21.28
2023-05-21T19:34:48.867Z,21.35
2023-05-21T19:37:21.814Z,21.31
2023-05-21T19:39:54.601Z,20.97
2023-05-21T19:42:27.648Z,20.64
2023-05-21T19:45:00.522Z,20.74
2023-05-21T19:47:34.839Z,20.78
2023-05-21T19:50:10.081Z,20.42
2023-05-21T19:52:45.350Z,20.17
2023-05-21T19:55:20.222Z,20.37
2023-05-21T19:57:53.313Z,20.19
2023-05-21T20:00:26.361Z,20.04
2023-05-21T20:03:00.731Z,19.86
2023-05-21T20:05:33.574Z,19.93
2023-05-21T20:08:06.458Z,19.94
2023-05-21T20:10:40.472Z,19.87
2023-05-21T20:13:13.498Z,19.98
2023-05-21T20:15:47.873Z,19.89
2023-05-21T20:18:22.342Z,19.95
2023-05-21T20:20:56.846Z,19.78
2023-05-21T20:23:29.682Z,19.78
2023-05-21T20:26:02.536Z,19.58
2023-05-21T20:28:35.546Z,19.72
2023-05-21T20:31:08.494Z,19.47
2023-05-21T20:33:43.040Z,19.51
2023-05-21T20:36:17.781Z,19.50
2023-05-21T20:38:50.631Z,19.43
2023-05-21T20:41:25.264Z,19.31
2023-05-21T20:43:58.996Z,19.32
2023-05-21T20:46:32.414Z,19.24
2023-05-21T20:49:06.829Z,18.99
2023-05-21T20:51:40.023Z,19.08
2023-05-21T20:54:13.546Z,18.73
2023-05-21T20:56:46.410Z,18.76
2023-05-21T20:59:19.558Z,18.75
2023-05-21T21:01:52.596Z,18.70
2023-05-21T21:04:27.659Z,18.72
2023-05-21T21:07:02.011Z,18.43
2023-05-21T21:09:34.997Z,18.35
2023-05-21T21:12:24.165Z,18.21
2023-05-21T21:14:58.744Z,18.40
2023-05-21T21:17:31.627Z,18.09
2023-05-21T21:20:07.888Z,17.97
2023-05-21T21:22:41.318Z,17.67
2023-05-21T21:25:15.285Z,17.77
2023-05-21T21:27:48.316Z,17.63
2023-05-21T21:30:21.375Z,17.58
2023-05-21T21:32:54.410Z,17.81
2023-05-21T21:35:28.803Z,17.76
2023-05-21T21:38:02.032Z,17.77
2023-05-21T21:40:35.024Z,17.76
2023-05-21T21:43:08.033Z,17.63
2023-05-21T21:45:41.265Z,17.30
2023-05-21T21:48:16.428Z,17.52
2023-05-21T21:50:50.840Z,17.44
2023-05-21T21:53:23.744Z,17.35
2023-05-21T21:55:56.932Z,17.28
2023-05-21T21:58:30.016Z,17.50
2023-05-21T22:01:02.897Z,17.27
2023-05-21T22:03:35.706Z,17.24
2023-05-21T22:06:09.986Z,17.19
2023-05-21T22:08:43.026Z,17.07
2023-05-21T22:11:15.823Z,17.10
2023-05-21T22:13:48.824Z,17.02
2023-05-21T22:16:21.705Z,17.00
2023-05-21T22:18:55.185Z,16.67
2023-05-21T22:21:32.756Z,16.44
2023-05-21T22:24:05.901Z,16.53
2023-05-21T22:26:38.692Z,16.33
2023-05-21T22:29:11.577Z,16.56
2023-05-21T22:31:44.483Z,16.01
2023-05-21T22:34:17.320Z,16.15
2023-05-21T22:36:51.520Z,16.29
2023-05-21T22:39:24.347Z,15.90
2023-05-21T22:41:57.256Z,15.99
2023-05-21T22:44:30.068Z,16.15
2023-05-21T22:47:03.343Z,16.20
2023-05-21T22:49:38.086Z,16.19
2023-05-21T22:52:12.309Z,16.18
2023-05-21T22:54:45.149Z,16.01
2023-05-21T22:57:17.951Z,16.02
2023-05-21T22:59:50.827Z,16.01
2023-05-21T23:02:23.823Z,16.11
2023-05-21T23:04:58.110Z,15.97
2023-05-21T23:07:32.389Z,15.93
2023-05-21T23:10:05.959Z,15.90
2023-05-21T23:12:38.832Z,15.78
2023-05-21T23:15:12.372Z,15.47
2023-05-21T23:17:45.841Z,15.39
2023-05-21T23:20:19.009Z,15.62
2023-05-21T23:22:53.511Z,15.00
2023-05-21T23:25:26.343Z,14.94
2023-05-21T23:27:59.123Z,15.01
2023-05-21T23:30:32.015Z,14.97
2023-05-21T23:33:04.977Z,15.30
2023-05-21T23:35:37.764Z,15.41
2023-05-21T23:38:11.972Z,15.46
2023-05-21T23:40:44.840Z,15.52
2023-05-21T23:43:17.816Z,15.32
2023-05-21T23:45:50.684Z,15.12
2023-05-21T23:48:23.648Z,15.14
2023-05-21T23:50:56.567Z,15.24
2023-05-21T23:53:30.780Z,15.12
2023-05-21T23:56:03.624Z,15.13
2023-05-21T23:58:36.472Z,15.08
